Fordoche, Louisiana
Current Conditions -  °F | °C
As of 1:35 AM on Saturday 29 Nov 2014 (Local Time) from KHZR Reporting Station
Clear Clear  
Wind Chill: 46°   Ceiling: Unl
Heat Index: 49°   Visibility: 10mi
Dew Point: 46°   Wind: 6mph
Humidity: 89%   Direction: 130°SE
Pressure: 30.19"   Gusts: NA
Location:  30.6°N, 91.62°W
Report Text: KHZR 290735Z AUTO 13005KT 10SM CLR 09/08 A3019 RMK AO2 T00930075
Loading
Personal Weather Stations






























Interactive Weather Map New forecast layout! Learn more

10-Day Weather Forecast

Advertisements
Track Severe Weather on mobile